sensor_id;sensor_type;location;lat;lon;timestamp;pressure;altitude;pressure_sealevel;temperature;humidity
55068;BME280;40965;52.368;9.712;2023-02-03T00:01:52;101313.41;;;6.37;100.00
55068;BME280;40965;52.368;9.712;2023-02-03T00:04:19;101313.41;;;6.37;100.00
55068;BME280;40965;52.368;9.712;2023-02-03T00:06:46;101306.53;;;6.39;100.00
55068;BME280;40965;52.368;9.712;2023-02-03T00:09:13;101288.38;;;6.44;100.00
55068;BME280;40965;52.368;9.712;2023-02-03T00:11:40;101293.56;;;6.42;100.00
55068;BME280;40965;52.368;9.712;2023-02-03T00:14:06;101297.00;;;6.40;100.00
55068;BME280;40965;52.368;9.712;2023-02-03T00:16:33;101283.97;;;6.38;100.00
55068;BME280;40965;52.368;9.712;2023-02-03T00:19:00;101289.16;;;6.38;100.00
55068;BME280;40965;52.368;9.712;2023-02-03T00:21:26;101274.56;;;6.46;100.00
55068;BME280;40965;52.368;9.712;2023-02-03T00:23:53;101262.47;;;6.49;100.00
55068;BME280;40965;52.368;9.712;2023-02-03T00:26:19;101266.91;;;6.54;100.00
55068;BME280;40965;52.368;9.712;2023-02-03T00:28:46;101255.69;;;6.57;100.00
55068;BME280;40965;52.368;9.712;2023-02-03T00:31:14;101268.75;;;6.60;100.00
55068;BME280;40965;52.368;9.712;2023-02-03T00:33:42;101267.91;;;6.61;100.00
55068;BME280;40965;52.368;9.712;2023-02-03T00:36:09;101274.81;;;6.59;100.00
55068;BME280;40965;52.368;9.712;2023-02-03T00:38:36;101275.72;;;6.61;100.00
55068;BME280;40965;52.368;9.712;2023-02-03T00:41:02;101277.41;;;6.59;100.00
55068;BME280;40965;52.368;9.712;2023-02-03T00:43:29;101281.81;;;6.65;100.00
55068;BME280;40965;52.368;9.712;2023-02-03T00:45:55;101276.59;;;6.63;100.00
55068;BME280;40965;52.368;9.712;2023-02-03T00:48:22;101274.13;;;6.71;100.00
55068;BME280;40965;52.368;9.712;2023-02-03T00:50:48;101274.13;;;6.69;100.00
55068;BME280;40965;52.368;9.712;2023-02-03T00:53:15;101270.56;;;6.64;100.00
55068;BME280;40965;52.368;9.712;2023-02-03T00:55:42;101275.66;;;6.59;100.00
55068;BME280;40965;52.368;9.712;2023-02-03T00:58:09;101268.72;;;6.58;100.00
55068;BME280;40965;52.368;9.712;2023-02-03T01:00:35;101262.63;;;6.58;100.00
55068;BME280;40965;52.368;9.712;2023-02-03T01:03:02;101267.97;;;6.66;100.00
55068;BME280;40965;52.368;9.712;2023-02-03T01:05:28;101259.28;;;6.64;100.00
55068;BME280;40965;52.368;9.712;2023-02-03T01:07:55;101249.78;;;6.67;100.00
55068;BME280;40965;52.368;9.712;2023-02-03T01:10:21;101255.09;;;6.73;100.00
55068;BME280;40965;52.368;9.712;2023-02-03T01:12:48;101256.84;;;6.73;100.00
55068;BME280;40965;52.368;9.712;2023-02-03T01:15:14;101265.50;;;6.73;100.00
55068;BME280;40965;52.368;9.712;2023-02-03T01:17:41;101259.34;;;6.68;100.00
55068;BME280;40965;52.368;9.712;2023-02-03T01:20:08;101266.34;;;6.72;100.00
55068;BME280;40965;52.368;9.712;2023-02-03T01:22:36;101272.31;;;6.65;100.00
55068;BME280;40965;52.368;9.712;2023-02-03T01:25:03;101270.59;;;6.67;100.00
55068;BME280;40965;52.368;9.712;2023-02-03T01:27:32;101276.69;;;6.68;100.00
55068;BME280;40965;52.368;9.712;2023-02-03T01:29:58;101255.81;;;6.66;100.00
55068;BME280;40965;52.368;9.712;2023-02-03T01:32:26;101282.88;;;6.74;100.00
55068;BME280;40965;52.368;9.712;2023-02-03T01:34:53;101269.75;;;6.68;100.00
55068;BME280;40965;52.368;9.712;2023-02-03T01:37:19;101268.94;;;6.71;100.00
55068;BME280;40965;52.368;9.712;2023-02-03T01:39:45;101266.22;;;6.65;100.00
55068;BME280;40965;52.368;9.712;2023-02-03T01:42:14;101278.50;;;6.72;100.00
55068;BME280;40965;52.368;9.712;2023-02-03T01:44:45;101261.94;;;6.67;100.00
55068;BME280;40965;52.368;9.712;2023-02-03T01:49:52;101272.25;;;6.62;100.00
55068;BME280;40965;52.368;9.712;2023-02-03T01:52:43;101262.88;;;6.72;100.00
55068;BME280;40965;52.368;9.712;2023-02-03T01:55:16;101249.88;;;6.73;100.00
55068;BME280;40965;52.368;9.712;2023-02-03T01:57:52;101249.09;;;6.79;100.00
55068;BME280;40965;52.368;9.712;2023-02-03T02:00:22;101233.50;;;6.79;100.00
55068;BME280;40965;52.368;9.712;2023-02-03T02:02:49;101237.78;;;6.75;100.00
55068;BME280;40965;52.368;9.712;2023-02-03T02:05:59;101228.25;;;6.76;100.00
55068;BME280;40965;52.368;9.712;2023-02-03T02:08:29;101208.38;;;6.81;100.00
55068;BME280;40965;52.368;9.712;2023-02-03T02:10:57;101198.81;;;6.78;100.00
55068;BME280;40965;52.368;9.712;2023-02-03T02:13:25;101207.53;;;6.82;100.00
55068;BME280;40965;52.368;9.712;2023-02-03T02:16:13;101182.34;;;6.79;100.00
55068;BME280;40965;52.368;9.712;2023-02-03T02:19:17;101189.31;;;6.81;100.00
55068;BME280;40965;52.368;9.712;2023-02-03T02:22:13;101198.09;;;6.89;100.00
55068;BME280;40965;52.368;9.712;2023-02-03T02:25:15;101163.53;;;6.98;100.00
55068;BME280;40965;52.368;9.712;2023-02-03T02:28:34;101155.72;;;6.98;100.00
55068;BME280;40965;52.368;9.712;2023-02-03T02:34:14;101157.38;;;6.92;100.00
55068;BME280;40965;52.368;9.712;2023-02-03T02:39:58;101166.88;;;6.92;100.00
55068;BME280;40965;52.368;9.712;2023-02-03T02:43:05;101158.34;;;7.02;100.00
55068;BME280;40965;52.368;9.712;2023-02-03T02:45:56;101169.59;;;7.00;100.00
55068;BME280;40965;52.368;9.712;2023-02-03T02:49:57;101163.66;;;7.07;100.00
55068;BME280;40965;52.368;9.712;2023-02-03T02:51:51;101168.03;;;7.11;100.00
55068;BME280;40965;52.368;9.712;2023-02-03T02:54:21;101153.34;;;7.16;100.00
55068;BME280;40965;52.368;9.712;2023-02-03T02:56:53;101129.03;;;7.16;100.00
55068;BME280;40965;52.368;9.712;2023-02-03T02:59:22;101132.66;;;7.27;100.00
55068;BME280;40965;52.368;9.712;2023-02-03T03:01:48;101130.84;;;7.21;100.00
55068;BME280;40965;52.368;9.712;2023-02-03T03:04:17;101136.81;;;7.14;100.00
55068;BME280;40965;52.368;9.712;2023-02-03T03:06:55;101137.66;;;7.13;100.00
55068;BME280;40965;52.368;9.712;2023-02-03T03:09:44;101142.94;;;7.16;100.00
55068;BME280;40965;52.368;9.712;2023-02-03T03:12:18;101142.03;;;7.16;100.00
55068;BME280;40965;52.368;9.712;2023-02-03T03:14:49;101127.22;;;7.10;100.00
55068;BME280;40965;52.368;9.712;2023-02-03T03:17:32;101155.03;;;7.12;100.00
55068;BME280;40965;52.368;9.712;2023-02-03T03:20:05;101148.91;;;7.09;100.00
55068;BME280;40965;52.368;9.712;2023-02-03T03:22:35;101148.88;;;7.06;100.00
55068;BME280;40965;52.368;9.712;2023-02-03T03:25:11;101154.09;;;7.07;100.00
55068;BME280;40965;52.368;9.712;2023-02-03T03:27:45;101138.44;;;7.03;100.00
55068;BME280;40965;52.368;9.712;2023-02-03T03:30:35;101132.41;;;7.08;100.00
55068;BME280;40965;52.368;9.712;2023-02-03T03:33:03;101128.97;;;7.09;100.00
55068;BME280;40965;52.368;9.712;2023-02-03T03:36:19;101125.44;;;7.06;100.00
55068;BME280;40965;52.368;9.712;2023-02-03T03:38:36;101119.34;;;7.04;100.00
55068;BME280;40965;52.368;9.712;2023-02-03T03:41:26;101109.66;;;6.93;100.00
55068;BME280;40965;52.368;9.712;2023-02-03T03:44:00;101113.16;;;6.95;100.00
55068;BME280;40965;52.368;9.712;2023-02-03T03:46:32;101106.28;;;6.99;100.00
55068;BME280;40965;52.368;9.712;2023-02-03T03:49:04;101119.19;;;6.93;100.00
55068;BME280;40965;52.368;9.712;2023-02-03T03:51:41;101102.09;;;7.10;100.00
55068;BME280;40965;52.368;9.712;2023-02-03T03:54:14;101100.34;;;7.12;100.00
55068;BME280;40965;52.368;9.712;2023-02-03T03:56:53;101096.91;;;7.14;100.00
55068;BME280;40965;52.368;9.712;2023-02-03T03:59:26;101097.66;;;7.05;100.00
55068;BME280;40965;52.368;9.712;2023-02-03T04:01:56;101101.19;;;7.08;100.00
55068;BME280;40965;52.368;9.712;2023-02-03T04:04:24;101095.03;;;7.03;100.00
55068;BME280;40965;52.368;9.712;2023-02-03T04:06:52;101090.84;;;7.15;100.00
55068;BME280;40965;52.368;9.712;2023-02-03T04:09:19;101091.63;;;7.09;100.00
55068;BME280;40965;52.368;9.712;2023-02-03T04:11:45;101086.41;;;7.09;100.00
55068;BME280;40965;52.368;9.712;2023-02-03T04:14:33;101085.66;;;7.15;100.00
55068;BME280;40965;52.368;9.712;2023-02-03T04:17:03;101082.25;;;7.22;100.00
55068;BME280;40965;52.368;9.712;2023-02-03T04:19:30;101082.22;;;7.20;100.00
55068;BME280;40965;52.368;9.712;2023-02-03T04:21:56;101072.69;;;7.21;100.00
55068;BME280;40965;52.368;9.712;2023-02-03T04:24:23;101078.78;;;7.21;100.00
55068;BME280;40965;52.368;9.712;2023-02-03T04:26:49;101078.78;;;7.24;100.00
55068;BME280;40965;52.368;9.712;2023-02-03T04:29:15;101078.72;;;7.18;100.00
55068;BME280;40965;52.368;9.712;2023-02-03T04:31:42;101078.69;;;7.15;100.00
55068;BME280;40965;52.368;9.712;2023-02-03T04:34:08;101094.31;;;7.17;100.00
55068;BME280;40965;52.368;9.712;2023-02-03T04:36:35;101080.47;;;7.18;100.00
55068;BME280;40965;52.368;9.712;2023-02-03T04:39:01;101078.72;;;7.18;100.00
55068;BME280;40965;52.368;9.712;2023-02-03T04:41:29;101082.28;;;7.25;100.00
55068;BME280;40965;52.368;9.712;2023-02-03T04:43:55;101075.31;;;7.22;100.00
55068;BME280;40965;52.368;9.712;2023-02-03T04:46:22;101077.03;;;7.22;100.00
55068;BME280;40965;52.368;9.712;2023-02-03T04:48:48;101081.41;;;7.24;100.00
55068;BME280;40965;52.368;9.712;2023-02-03T04:51:15;101066.72;;;7.29;100.00
55068;BME280;40965;52.368;9.712;2023-02-03T04:53:41;101078.78;;;7.21;100.00
55068;BME280;40965;52.368;9.712;2023-02-03T04:56:07;101070.19;;;7.30;100.00
55068;BME280;40965;52.368;9.712;2023-02-03T04:58:35;101062.34;;;7.27;100.00
55068;BME280;40965;52.368;9.712;2023-02-03T05:01:07;101072.75;;;7.25;100.00
55068;BME280;40965;52.368;9.712;2023-02-03T05:03:34;101068.44;;;7.27;100.00
55068;BME280;40965;52.368;9.712;2023-02-03T05:06:00;101067.53;;;7.24;100.00
55068;BME280;40965;52.368;9.712;2023-02-03T05:08:28;101071.06;;;7.29;100.00
55068;BME280;40965;52.368;9.712;2023-02-03T05:10:55;101045.88;;;7.31;100.00
55068;BME280;40965;52.368;9.712;2023-02-03T05:13:21;101051.19;;;7.40;100.00
55068;BME280;40965;52.368;9.712;2023-02-03T05:15:48;101033.88;;;7.44;100.00
55068;BME280;40965;52.368;9.712;2023-02-03T05:18:14;101044.22;;;7.38;100.00
55068;BME280;40965;52.368;9.712;2023-02-03T05:20:41;101048.53;;;7.33;100.00
55068;BME280;40965;52.368;9.712;2023-02-03T05:23:07;101052.03;;;7.38;100.00
55068;BME280;40965;52.368;9.712;2023-02-03T05:25:34;101034.72;;;7.41;100.00
55068;BME280;40965;52.368;9.712;2023-02-03T05:28:00;101019.06;;;7.41;100.00
55068;BME280;40965;52.368;9.712;2023-02-03T05:30:27;101035.53;;;7.34;100.00
55068;BME280;40965;52.368;9.712;2023-02-03T05:32:53;101008.72;;;7.46;100.00
55068;BME280;40965;52.368;9.712;2023-02-03T05:35:19;101023.44;;;7.45;100.00
55068;BME280;40965;52.368;9.712;2023-02-03T05:37:46;101006.06;;;7.43;100.00
55068;BME280;40965;52.368;9.712;2023-02-03T05:40:13;101021.75;;;7.49;100.00
55068;BME280;40965;52.368;9.712;2023-02-03T05:42:57;101016.47;;;7.41;100.00
55068;BME280;40965;52.368;9.712;2023-02-03T05:45:23;101013.88;;;7.43;100.00
55068;BME280;40965;52.368;9.712;2023-02-03T05:47:50;101010.41;;;7.42;100.00
55068;BME280;40965;52.368;9.712;2023-02-03T05:50:16;101013.84;;;7.38;100.00
55068;BME280;40965;52.368;9.712;2023-02-03T05:52:43;101024.19;;;7.32;100.00
55068;BME280;40965;52.368;9.712;2023-02-03T05:55:09;101015.44;;;7.25;100.00
55068;BME280;40965;52.368;9.712;2023-02-03T05:57:36;101018.81;;;7.17;100.00
55068;BME280;40965;52.368;9.712;2023-02-03T06:00:02;101012.69;;;7.11;100.00
55068;BME280;40965;52.368;9.712;2023-02-03T06:02:30;101018.81;;;7.14;100.00
55068;BME280;40965;52.368;9.712;2023-02-03T06:04:56;101013.53;;;7.09;100.00
55068;BME280;40965;52.368;9.712;2023-02-03T06:07:23;101015.25;;;7.05;100.00
55068;BME280;40965;52.368;9.712;2023-02-03T06:09:49;101039.50;;;7.03;100.00
55068;BME280;40965;52.368;9.712;2023-02-03T06:12:16;101023.81;;;6.98;100.00
55068;BME280;40965;52.368;9.712;2023-02-03T06:14:42;101031.75;;;7.07;100.00
55068;BME280;40965;52.368;9.712;2023-02-03T06:17:09;101029.09;;;7.03;100.00
55068;BME280;40965;52.368;9.712;2023-02-03T06:19:35;101030.78;;;6.98;100.00
55068;BME280;40965;52.368;9.712;2023-02-03T06:22:02;101003.00;;;6.97;100.00
55068;BME280;40965;52.368;9.712;2023-02-03T06:24:28;101029.84;;;6.94;100.00
55068;BME280;40965;52.368;9.712;2023-02-03T06:26:55;101021.09;;;6.86;100.00
55068;BME280;40965;52.368;9.712;2023-02-03T06:29:24;101024.53;;;6.83;100.00
55068;BME280;40965;52.368;9.712;2023-02-03T06:31:51;101019.22;;;6.75;100.00
55068;BME280;40965;52.368;9.712;2023-02-03T06:34:21;101020.00;;;6.68;100.00
55068;BME280;40965;52.368;9.712;2023-02-03T06:36:47;101020.00;;;6.68;100.00
55068;BME280;40965;52.368;9.712;2023-02-03T06:39:14;101027.75;;;6.65;100.00
55068;BME280;40965;52.368;9.712;2023-02-03T06:41:40;101029.56;;;6.69;100.00
55068;BME280;40965;52.368;9.712;2023-02-03T06:44:39;101018.19;;;6.62;100.00
55068;BME280;40965;52.368;9.712;2023-02-03T06:51:38;101021.63;;;6.58;100.00
55068;BME280;40965;52.368;9.712;2023-02-03T06:54:05;101009.47;;;6.57;100.00
55068;BME280;40965;52.368;9.712;2023-02-03T06:56:31;100992.13;;;6.59;100.00
55068;BME280;40965;52.368;9.712;2023-02-03T06:58:58;101006.88;;;6.60;100.00
55068;BME280;40965;52.368;9.712;2023-02-03T07:01:25;100990.34;;;6.55;100.00
55068;BME280;40965;52.368;9.712;2023-02-03T07:03:51;101001.56;;;6.51;100.00
55068;BME280;40965;52.368;9.712;2023-02-03T07:06:18;100996.38;;;6.53;100.00
55068;BME280;40965;52.368;9.712;2023-02-03T07:08:45;101002.41;;;6.52;100.00
55068;BME280;40965;52.368;9.712;2023-02-03T07:11:11;101007.63;;;6.52;100.00
55068;BME280;40965;52.368;9.712;2023-02-03T07:13:38;100999.81;;;6.50;100.00
55068;BME280;40965;52.368;9.712;2023-02-03T07:16:05;101003.34;;;6.54;100.00
55068;BME280;40965;52.368;9.712;2023-02-03T07:18:31;100995.50;;;6.52;100.00
55068;BME280;40965;52.368;9.712;2023-02-03T07:20:58;101006.75;;;6.51;100.00
55068;BME280;40965;52.368;9.712;2023-02-03T07:23:24;100994.59;;;6.49;100.00
55068;BME280;40965;52.368;9.712;2023-02-03T07:25:51;100974.69;;;6.52;100.00
55068;BME280;40965;52.368;9.712;2023-02-03T07:28:17;100960.88;;;6.58;100.00
55068;BME280;40965;52.368;9.712;2023-02-03T07:30:44;100981.63;;;6.52;100.00
55068;BME280;40965;52.368;9.712;2023-02-03T07:33:10;100979.91;;;6.54;100.00
55068;BME280;40965;52.368;9.712;2023-02-03T07:35:36;100982.59;;;6.60;100.00
55068;BME280;40965;52.368;9.712;2023-02-03T07:38:03;100972.13;;;6.55;100.00
55068;BME280;40965;52.368;9.712;2023-02-03T07:40:29;100979.16;;;6.61;100.00
55068;BME280;40965;52.368;9.712;2023-02-03T07:42:56;100948.81;;;6.65;100.00
55068;BME280;40965;52.368;9.712;2023-02-03T07:45:23;100941.00;;;6.61;100.00
55068;BME280;40965;52.368;9.712;2023-02-03T07:47:50;100960.97;;;6.62;100.00
55068;BME280;40965;52.368;9.712;2023-02-03T07:50:17;100959.19;;;6.60;100.00
55068;BME280;40965;52.368;9.712;2023-02-03T07:52:43;100960.03;;;6.59;100.00
55068;BME280;40965;52.368;9.712;2023-02-03T07:55:09;100965.22;;;6.57;100.00
55068;BME280;40965;52.368;9.712;2023-02-03T07:57:36;100957.47;;;6.62;100.00
55068;BME280;40965;52.368;9.712;2023-02-03T08:00:08;100954.03;;;6.65;100.00
55068;BME280;40965;52.368;9.712;2023-02-03T08:02:36;100938.44;;;6.65;100.00
55068;BME280;40965;52.368;9.712;2023-02-03T08:05:03;100956.66;;;6.66;100.00
55068;BME280;40965;52.368;9.712;2023-02-03T08:07:29;100948.84;;;6.66;100.00
55068;BME280;40965;52.368;9.712;2023-02-03T08:09:56;100950.69;;;6.75;100.00
55068;BME280;40965;52.368;9.712;2023-02-03T08:12:22;100949.00;;;6.78;100.00
55068;BME280;40965;52.368;9.712;2023-02-03T08:14:49;100943.78;;;6.77;100.00
55068;BME280;40965;52.368;9.712;2023-02-03T08:17:15;100958.56;;;6.81;100.00
55068;BME280;40965;52.368;9.712;2023-02-03T08:19:42;100959.44;;;6.82;100.00
55068;BME280;40965;52.368;9.712;2023-02-03T08:22:09;100958.59;;;6.84;100.00
55068;BME280;40965;52.368;9.712;2023-02-03T08:24:40;100943.91;;;6.89;100.00
55068;BME280;40965;52.368;9.712;2023-02-03T08:27:15;100931.88;;;6.98;100.00
55068;BME280;40965;52.368;9.712;2023-02-03T08:29:47;100936.19;;;6.97;100.00
55068;BME280;40965;52.368;9.712;2023-02-03T08:32:19;100951.81;;;6.99;100.00
55068;BME280;40965;52.368;9.712;2023-02-03T08:34:48;100955.38;;;7.07;100.00
55068;BME280;40965;52.368;9.712;2023-02-03T08:37:16;100968.34;;;7.04;100.00
55068;BME280;40965;52.368;9.712;2023-02-03T08:39:44;100958.06;;;7.15;100.00
55068;BME280;40965;52.368;9.712;2023-02-03T08:42:10;100968.50;;;7.18;100.00
55068;BME280;40965;52.368;9.712;2023-02-03T08:44:37;100959.94;;;7.29;100.00
55068;BME280;40965;52.368;9.712;2023-02-03T08:47:05;100960.78;;;7.28;100.00
55068;BME280;40965;52.368;9.712;2023-02-03T08:49:31;100951.25;;;7.27;100.00
55068;BME280;40965;52.368;9.712;2023-02-03T08:52:00;100956.47;;;7.29;100.00
55068;BME280;40965;52.368;9.712;2023-02-03T08:54:27;100947.75;;;7.28;100.00
55068;BME280;40965;52.368;9.712;2023-02-03T08:56:53;100958.19;;;7.28;100.00
55068;BME280;40965;52.368;9.712;2023-02-03T08:59:20;100945.91;;;7.12;100.00
55068;BME280;40965;52.368;9.712;2023-02-03T09:01:47;100971.88;;;7.07;100.00
55068;BME280;40965;52.368;9.712;2023-02-03T09:04:16;100972.72;;;7.06;100.00
55068;BME280;40965;52.368;9.712;2023-02-03T09:06:47;100969.25;;;7.07;100.00
55068;BME280;40965;52.368;9.712;2023-02-03T09:09:14;100951.03;;;7.06;100.00
55068;BME280;40965;52.368;9.712;2023-02-03T09:11:41;100959.84;;;7.17;100.00
55068;BME280;40965;52.368;9.712;2023-02-03T09:14:08;100966.75;;;7.17;100.00
55068;BME280;40965;52.368;9.712;2023-02-03T09:16:36;100953.81;;;7.23;100.00
55068;BME280;40965;52.368;9.712;2023-02-03T09:19:03;100954.72;;;7.26;100.00
55068;BME280;40965;52.368;9.712;2023-02-03T09:21:29;100969.50;;;7.32;100.00
55068;BME280;40965;52.368;9.712;2023-02-03T09:23:59;100973.03;;;7.36;100.00
55068;BME280;40965;52.368;9.712;2023-02-03T09:26:27;100966.06;;;7.36;100.00
55068;BME280;40965;52.368;9.712;2023-02-03T09:28:53;100972.19;;;7.40;100.00
55068;BME280;40965;52.368;9.712;2023-02-03T09:31:20;100970.47;;;7.42;100.00
55068;BME280;40965;52.368;9.712;2023-02-03T09:33:47;100953.19;;;7.50;100.00
55068;BME280;40965;52.368;9.712;2023-02-03T09:36:13;100944.50;;;7.51;100.00
55068;BME280;40965;52.368;9.712;2023-02-03T09:38:40;100970.56;;;7.51;100.00
55068;BME280;40965;52.368;9.712;2023-02-03T09:43:50;100951.34;;;7.41;100.00
55068;BME280;40965;52.368;9.712;2023-02-03T09:46:42;100948.75;;;7.41;100.00
55068;BME280;40965;52.368;9.712;2023-02-03T09:51:50;100963.38;;;7.25;100.00
55068;BME280;40965;52.368;9.712;2023-02-03T09:54:32;100963.44;;;7.30;100.00
55068;BME280;40965;52.368;9.712;2023-02-03T09:57:25;100967.72;;;7.25;100.00
55068;BME280;40965;52.368;9.712;2023-02-03T09:59:56;100963.28;;;7.18;100.00
55068;BME280;40965;52.368;9.712;2023-02-03T10:08:21;100988.56;;;7.25;100.00
55068;BME280;40965;52.368;9.712;2023-02-03T10:10:57;100954.69;;;7.25;100.00
55068;BME280;40965;52.368;9.712;2023-02-03T10:17:05;100965.97;;;7.25;100.00
55068;BME280;40965;52.368;9.712;2023-02-03T10:19:55;100954.66;;;7.23;100.00
55068;BME280;40965;52.368;9.712;2023-02-03T10:22:30;100959.03;;;7.24;100.00
55068;BME280;40965;52.368;9.712;2023-02-03T10:27:34;100978.06;;;7.19;100.00
55068;BME280;40965;52.368;9.712;2023-02-03T10:30:21;100993.69;;;7.17;100.00
55068;BME280;40965;52.368;9.712;2023-02-03T10:32:54;100995.34;;;7.12;100.00
55068;BME280;40965;52.368;9.712;2023-02-03T10:35:47;101013.56;;;7.10;100.00
55068;BME280;40965;52.368;9.712;2023-02-03T10:38:30;101018.72;;;7.07;100.00
55068;BME280;40965;52.368;9.712;2023-02-03T10:41:05;101010.88;;;7.03;100.00
55068;BME280;40965;52.368;9.712;2023-02-03T10:43:32;101014.38;;;7.06;100.00
55068;BME280;40965;52.368;9.712;2023-02-03T10:46:35;100999.59;;;7.04;100.00
55068;BME280;40965;52.368;9.712;2023-02-03T10:49:03;101022.22;;;7.09;100.00
55068;BME280;40965;52.368;9.712;2023-02-03T10:51:36;101023.09;;;7.10;100.00
55068;BME280;40965;52.368;9.712;2023-02-03T10:54:25;101014.47;;;7.16;100.00
55068;BME280;40965;52.368;9.712;2023-02-03T10:56:56;101018.88;;;7.20;100.00
55068;BME280;40965;52.368;9.712;2023-02-03T10:59:30;101020.63;;;7.22;100.00
55068;BME280;40965;52.368;9.712;2023-02-03T11:02:06;101018.03;;;7.22;100.00
55068;BME280;40965;52.368;9.712;2023-02-03T11:04:47;101015.44;;;7.25;100.00
55068;BME280;40965;52.368;9.712;2023-02-03T11:07:25;101010.31;;;7.30;100.00
55068;BME280;40965;52.368;9.712;2023-02-03T11:09:51;101016.41;;;7.34;100.00
55068;BME280;40965;52.368;9.712;2023-02-03T11:12:18;101038.13;;;7.36;100.00
55068;BME280;40965;52.368;9.712;2023-02-03T11:14:47;101047.69;;;7.37;100.00
55068;BME280;40965;52.368;9.712;2023-02-03T11:17:17;101042.44;;;7.35;100.00
55068;BME280;40965;52.368;9.712;2023-02-03T11:19:48;101043.34;;;7.34;100.00
55068;BME280;40965;52.368;9.712;2023-02-03T11:22:35;101054.63;;;7.38;100.00
55068;BME280;40965;52.368;9.712;2023-02-03T11:25:14;101049.50;;;7.44;100.00
55068;BME280;40965;52.368;9.712;2023-02-03T11:27:44;101049.56;;;7.49;100.00
55068;BME280;40965;52.368;9.712;2023-02-03T11:30:17;101056.53;;;7.51;100.00
55068;BME280;40965;52.368;9.712;2023-02-03T11:32:49;101034.00;;;7.58;100.00
55068;BME280;40965;52.368;9.712;2023-02-03T11:35:21;101047.97;;;7.65;100.00
55068;BME280;40965;52.368;9.712;2023-02-03T11:37:58;101046.28;;;7.70;100.00
55068;BME280;40965;52.368;9.712;2023-02-03T11:40:28;101042.00;;;7.78;100.00
55068;BME280;40965;52.368;9.712;2023-02-03T11:45:25;101052.56;;;7.92;100.00
55068;BME280;40965;52.368;9.712;2023-02-03T11:50:29;101063.97;;;8.08;100.00
55068;BME280;40965;52.368;9.712;2023-02-03T12:02:32;101067.72;;;8.44;100.00
55068;BME280;40965;52.368;9.712;2023-02-03T12:05:35;101076.41;;;8.41;100.00
55068;BME280;40965;52.368;9.712;2023-02-03T12:08:40;101069.38;;;8.31;100.00
55068;BME280;40965;52.368;9.712;2023-02-03T12:11:28;101066.69;;;8.23;100.00
55068;BME280;40965;52.368;9.712;2023-02-03T12:17:05;101090.22;;;8.30;100.00
55068;BME280;40965;52.368;9.712;2023-02-03T12:19:55;101085.88;;;8.28;100.00
55068;BME280;40965;52.368;9.712;2023-02-03T12:28:44;101104.13;;;8.27;100.00
55068;BME280;40965;52.368;9.712;2023-02-03T12:31:56;101105.03;;;8.35;100.00
55068;BME280;40965;52.368;9.712;2023-02-03T12:34:18;101091.28;;;8.49;98.86
55068;BME280;40965;52.368;9.712;2023-02-03T12:36:55;101103.47;;;8.56;95.65
55068;BME280;40965;52.368;9.712;2023-02-03T12:42:41;101089.63;;;8.69;89.67
55068;BME280;40965;52.368;9.712;2023-02-03T12:45:17;101090.53;;;8.74;88.39
55068;BME280;40965;52.368;9.712;2023-02-03T12:47:55;101101.88;;;8.78;88.64
55068;BME280;40965;52.368;9.712;2023-02-03T12:50:40;101108.00;;;8.80;86.80
55068;BME280;40965;52.368;9.712;2023-02-03T12:53:15;101109.72;;;8.81;85.87
55068;BME280;40965;52.368;9.712;2023-02-03T12:56:03;101104.56;;;8.92;84.79
55068;BME280;40965;52.368;9.712;2023-02-03T12:58:46;101095.03;;;9.00;82.53
55068;BME280;40965;52.368;9.712;2023-02-03T13:01:33;101096.78;;;9.06;77.53
55068;BME280;40965;52.368;9.712;2023-02-03T13:04:16;101097.66;;;9.06;75.63
55068;BME280;40965;52.368;9.712;2023-02-03T13:09:58;101087.19;;;9.00;75.36
55068;BME280;40965;52.368;9.712;2023-02-03T13:13:04;101109.81;;;8.98;74.54
55068;BME280;40965;52.368;9.712;2023-02-03T13:15:44;101115.91;;;9.00;75.08
55068;BME280;40965;52.368;9.712;2023-02-03T13:18:37;101117.63;;;8.97;75.08
55068;BME280;40965;52.368;9.712;2023-02-03T13:21:10;101108.94;;;8.93;75.08
55068;BME280;40965;52.368;9.712;2023-02-03T13:23:42;101129.78;;;8.87;75.35
55068;BME280;40965;52.368;9.712;2023-02-03T13:26:50;101130.69;;;8.90;75.36
55068;BME280;40965;52.368;9.712;2023-02-03T13:35:07;101129.81;;;8.98;73.56
55068;BME280;40965;52.368;9.712;2023-02-03T13:40:53;101130.72;;;9.01;73.51
55068;BME280;40965;52.368;9.712;2023-02-03T13:43:35;101140.34;;;9.12;71.78
55068;BME280;40965;52.368;9.712;2023-02-03T13:46:06;101144.69;;;9.11;70.85
55068;BME280;40965;52.368;9.712;2023-02-03T13:48:36;101128.16;;;9.09;69.94
55068;BME280;40965;52.368;9.712;2023-02-03T13:53:35;101147.25;;;9.02;68.67
55068;BME280;40965;52.368;9.712;2023-02-03T13:56:06;101149.81;;;8.92;69.31
55068;BME280;40965;52.368;9.712;2023-02-03T13:58:37;101140.22;;;8.85;70.19
55068;BME280;40965;52.368;9.712;2023-02-03T14:01:27;101158.41;;;8.71;69.25
55068;BME280;40965;52.368;9.712;2023-02-03T14:04:08;101176.63;;;8.67;68.56
55068;BME280;40965;52.368;9.712;2023-02-03T14:06:59;101155.69;;;8.57;68.00
55068;BME280;40965;52.368;9.712;2023-02-03T14:12:31;101173.88;;;8.51;67.57
55068;BME280;40965;52.368;9.712;2023-02-03T14:15:12;101176.41;;;8.42;67.30
55068;BME280;40965;52.368;9.712;2023-02-03T14:23:05;101183.34;;;8.38;68.52
55068;BME280;40965;52.368;9.712;2023-02-03T14:25:54;101186.78;;;8.36;69.02
55068;BME280;40965;52.368;9.712;2023-02-03T14:28:44;101198.94;;;8.34;69.88
55068;BME280;40965;52.368;9.712;2023-02-03T14:31:22;101202.38;;;8.30;70.95
55068;BME280;40965;52.368;9.712;2023-02-03T14:34:05;101203.22;;;8.25;70.75
55068;BME280;40965;52.368;9.712;2023-02-03T14:36:43;101207.53;;;8.23;72.36
55068;BME280;40965;52.368;9.712;2023-02-03T14:41:54;101210.97;;;8.18;72.35